createdAt,value
2017-03-09T00:00:58.455Z,7.49
2017-03-09T00:02:09.903Z,7.47
2017-03-09T00:03:21.358Z,7.45
2017-03-09T00:04:33.007Z,7.44
2017-03-09T00:05:44.453Z,7.44
2017-03-09T00:06:55.889Z,7.4
2017-03-09T00:08:07.330Z,7.47
2017-03-09T00:09:18.987Z,7.48
2017-03-09T00:10:30.674Z,7.54
2017-03-09T00:11:42.119Z,7.47
2017-03-09T00:12:53.576Z,7.56
2017-03-09T00:14:05.006Z,7.48
2017-03-09T00:15:16.447Z,7.48
2017-03-09T00:16:27.885Z,7.52
2017-03-09T00:17:39.308Z,7.44
2017-03-09T00:18:50.740Z,7.45
2017-03-09T00:20:02.424Z,7.41
2017-03-09T00:21:13.894Z,7.39
2017-03-09T00:22:25.328Z,7.39
2017-03-09T00:23:36.753Z,7.34
2017-03-09T00:24:48.192Z,7.44
2017-03-09T00:25:59.610Z,7.37
2017-03-09T00:27:11.056Z,7.4
2017-03-09T00:28:22.699Z,7.34
2017-03-09T00:29:34.125Z,7.39
2017-03-09T00:30:45.802Z,7.4
2017-03-09T00:31:57.241Z,7.4
2017-03-09T00:33:08.669Z,7.4
2017-03-09T00:34:20.318Z,7.44
2017-03-09T00:35:31.761Z,7.37
2017-03-09T00:36:43.196Z,7.34
2017-03-09T00:37:54.672Z,7.3
2017-03-09T00:39:06.130Z,7.33
2017-03-09T00:40:17.562Z,7.31
2017-03-09T00:41:29.232Z,7.26
2017-03-09T00:42:40.690Z,7.36
2017-03-09T00:43:52.148Z,7.29
2017-03-09T00:45:03.575Z,7.26
2017-03-09T00:46:15.013Z,7.33
2017-03-09T00:47:26.509Z,7.36
2017-03-09T00:48:37.945Z,7.33
2017-03-09T00:49:49.395Z,7.34
2017-03-09T00:51:00.849Z,7.33
2017-03-09T00:52:12.509Z,7.37
2017-03-09T00:53:24.009Z,7.44
2017-03-09T00:54:35.462Z,7.22
2017-03-09T00:55:46.914Z,7.36
2017-03-09T00:56:58.544Z,7.41
2017-03-09T00:58:10.238Z,7.39
2017-03-09T00:59:21.681Z,7.39
2017-03-09T01:00:33.126Z,7.36
2017-03-09T01:01:44.570Z,7.45
2017-03-09T01:02:56.013Z,7.37
2017-03-09T01:04:07.868Z,7.34
2017-03-09T01:05:19.290Z,7.41
2017-03-09T01:06:30.736Z,7.3
2017-03-09T01:07:42.191Z,7.34
2017-03-09T01:08:53.674Z,7.33
2017-03-09T01:10:05.149Z,7.41
2017-03-09T01:11:16.580Z,7.29
2017-03-09T01:12:28.036Z,7.37
2017-03-09T01:13:39.670Z,7.41
2017-03-09T01:14:51.319Z,7.26
2017-03-09T01:16:02.993Z,7.34
2017-03-09T01:17:14.437Z,7.34
2017-03-09T01:18:25.863Z,7.31
2017-03-09T01:19:37.313Z,7.37
2017-03-09T01:20:48.795Z,7.27
2017-03-09T01:22:00.426Z,7.29
2017-03-09T01:23:11.855Z,7.3
2017-03-09T01:24:23.320Z,7.27
2017-03-09T01:25:34.760Z,7.27
2017-03-09T01:26:46.190Z,7.23
2017-03-09T01:27:57.629Z,7.29
2017-03-09T01:29:09.068Z,7.15
2017-03-09T01:30:20.565Z,7.21
2017-03-09T01:31:32.006Z,7.26
2017-03-09T01:32:43.467Z,7.21
2017-03-09T01:33:54.904Z,7.26
2017-03-09T01:35:06.346Z,7.22
2017-03-09T01:36:17.790Z,7.18
2017-03-09T01:37:29.246Z,7.22
2017-03-09T01:38:40.690Z,7.27
2017-03-09T01:39:52.131Z,7.19
2017-03-09T01:41:03.619Z,7.19
2017-03-09T01:42:15.263Z,7.16
2017-03-09T01:43:26.700Z,7.21
2017-03-09T01:44:38.149Z,7.16
2017-03-09T01:45:49.803Z,7.18
2017-03-09T01:47:01.238Z,7.12
2017-03-09T01:48:12.866Z,7.01
2017-03-09T01:49:24.358Z,6.91
2017-03-09T01:50:35.781Z,6.86
2017-03-09T01:51:47.432Z,6.94
2017-03-09T01:52:58.886Z,6.79
2017-03-09T01:54:10.310Z,6.79
2017-03-09T01:55:21.754Z,6.83
2017-03-09T01:56:33.204Z,6.76
2017-03-09T01:57:45.091Z,6.61
2017-03-09T01:58:56.553Z,6.67
2017-03-09T02:00:08.005Z,6.62
2017-03-09T02:01:19.477Z,6.64
2017-03-09T02:02:30.933Z,6.51
2017-03-09T02:03:42.358Z,6.54
2017-03-09T02:04:53.804Z,6.51
2017-03-09T02:06:05.249Z,6.4
2017-03-09T02:07:16.705Z,6.31
2017-03-09T02:08:28.212Z,6.36
2017-03-09T02:09:39.685Z,6.17
2017-03-09T02:10:51.143Z,6.25
2017-03-09T02:12:02.595Z,6.17
2017-03-09T02:13:14.079Z,6.14
2017-03-09T02:14:25.524Z,6.06
2017-03-09T02:15:36.967Z,6
2017-03-09T02:16:48.412Z,5.95
2017-03-09T02:17:59.870Z,5.96
2017-03-09T02:19:11.350Z,5.87
2017-03-09T02:20:22.800Z,5.75
2017-03-09T02:21:34.469Z,5.69
2017-03-09T02:22:46.136Z,5.73
2017-03-09T02:23:57.785Z,5.8
2017-03-09T02:25:09.447Z,5.73
2017-03-09T02:26:20.911Z,5.66
2017-03-09T02:27:32.367Z,5.7
2017-03-09T02:28:43.812Z,5.63
2017-03-09T02:29:55.292Z,5.57
2017-03-09T02:31:06.759Z,5.51
2017-03-09T02:32:18.388Z,5.42
2017-03-09T02:33:30.024Z,5.51
2017-03-09T02:34:41.452Z,5.37
2017-03-09T02:35:52.892Z,5.45
2017-03-09T02:37:04.358Z,5.39
2017-03-09T02:38:15.796Z,5.41
2017-03-09T02:39:27.632Z,5.42
2017-03-09T02:40:39.140Z,5.42
2017-03-09T02:41:50.580Z,5.44
2017-03-09T02:43:02.007Z,5.41
2017-03-09T02:44:13.432Z,5.41
2017-03-09T02:45:25.066Z,5.42
2017-03-09T02:46:36.713Z,5.34
2017-03-09T02:47:48.369Z,5.37
2017-03-09T02:48:59.812Z,5.39
2017-03-09T02:50:11.287Z,5.37
2017-03-09T02:51:23.192Z,5.45
2017-03-09T02:52:34.827Z,5.41
2017-03-09T02:53:46.255Z,5.36
2017-03-09T02:54:57.684Z,5.45
2017-03-09T02:56:09.114Z,5.52
2017-03-09T02:57:20.541Z,5.52
2017-03-09T02:58:31.993Z,5.51
2017-03-09T02:59:43.434Z,5.51
2017-03-09T03:00:54.870Z,5.57
2017-03-09T03:02:06.515Z,5.63
2017-03-09T03:03:18.026Z,5.57
2017-03-09T03:04:29.449Z,5.75
2017-03-09T03:05:40.888Z,5.75
2017-03-09T03:06:52.337Z,5.7
2017-03-09T03:08:03.800Z,5.73
2017-03-09T03:09:15.447Z,5.77
2017-03-09T03:10:27.076Z,5.8
2017-03-09T03:11:38.535Z,5.87
2017-03-09T03:12:50.026Z,5.84
2017-03-09T03:14:01.481Z,5.81
2017-03-09T03:15:12.926Z,5.82
2017-03-09T03:16:24.768Z,5.85
2017-03-09T03:17:36.213Z,5.85
2017-03-09T03:18:47.658Z,5.78
2017-03-09T03:19:59.090Z,5.88
2017-03-09T03:21:10.545Z,5.89
2017-03-09T03:22:21.987Z,5.85
2017-03-09T03:23:33.698Z,5.87
2017-03-09T03:24:45.142Z,5.85
2017-03-09T03:25:56.587Z,5.84
2017-03-09T03:27:08.033Z,5.89
2017-03-09T03:28:19.457Z,5.92
2017-03-09T03:29:30.938Z,5.89
2017-03-09T03:30:42.391Z,5.92
2017-03-09T03:31:54.034Z,5.95
2017-03-09T03:33:05.457Z,5.88
2017-03-09T03:34:16.891Z,6.02
2017-03-09T03:35:28.327Z,5.89
2017-03-09T03:36:39.972Z,5.98
2017-03-09T03:37:51.418Z,5.92
2017-03-09T03:39:02.913Z,5.91
2017-03-09T03:40:14.387Z,5.91
2017-03-09T03:41:25.827Z,5.98
2017-03-09T03:42:37.259Z,5.92
2017-03-09T03:43:48.703Z,5.98
2017-03-09T03:45:00.146Z,5.89
2017-03-09T03:46:11.798Z,5.99
2017-03-09T03:47:23.219Z,6.02
2017-03-09T03:48:34.660Z,6
2017-03-09T03:49:46.503Z,6
2017-03-09T03:50:57.993Z,5.99
2017-03-09T03:52:09.438Z,6.05
2017-03-09T03:53:21.063Z,6.06
2017-03-09T03:54:32.493Z,5.95
2017-03-09T03:55:43.916Z,6.02
2017-03-09T03:56:55.356Z,6.02
2017-03-09T03:58:06.818Z,6.09
2017-03-09T03:59:18.263Z,5.95
2017-03-09T04:00:29.696Z,6.06
2017-03-09T04:01:41.177Z,6.1
2017-03-09T04:02:52.616Z,6.09
2017-03-09T04:04:04.264Z,6.06
2017-03-09T04:05:15.698Z,6.13
2017-03-09T04:06:27.144Z,6.21
2017-03-09T04:07:38.584Z,6.14
2017-03-09T04:08:50.215Z,6.06
2017-03-09T04:10:01.650Z,6.05
2017-03-09T04:11:13.311Z,6.13
2017-03-09T04:12:24.753Z,6.05
2017-03-09T04:13:36.468Z,6
2017-03-09T04:14:47.911Z,5.98
2017-03-09T04:15:59.355Z,6.06
2017-03-09T04:17:10.802Z,5.95
2017-03-09T04:18:22.266Z,6.06
2017-03-09T04:19:33.726Z,5.96
2017-03-09T04:20:45.189Z,5.92
2017-03-09T04:21:56.827Z,5.98
2017-03-09T04:23:08.330Z,5.89
2017-03-09T04:24:20.189Z,5.87
2017-03-09T04:25:31.820Z,5.84
2017-03-09T04:26:43.269Z,5.78
2017-03-09T04:27:54.713Z,5.87
2017-03-09T04:29:06.138Z,5.77
2017-03-09T04:30:17.594Z,5.84
2017-03-09T04:31:29.025Z,5.88
2017-03-09T04:32:40.661Z,5.87
2017-03-09T04:33:52.156Z,5.91
2017-03-09T04:35:03.808Z,5.95
2017-03-09T04:36:15.435Z,5.95
2017-03-09T04:37:26.871Z,5.89
2017-03-09T04:38:38.299Z,5.92
2017-03-09T04:39:49.920Z,5.92
2017-03-09T04:41:01.368Z,5.92
2017-03-09T04:42:12.819Z,5.95
2017-03-09T04:43:24.245Z,5.92
2017-03-09T04:44:35.679Z,5.96
2017-03-09T04:45:47.322Z,5.92
2017-03-09T04:46:58.756Z,5.99
2017-03-09T04:48:10.219Z,6
2017-03-09T04:49:21.634Z,5.99
2017-03-09T04:50:33.115Z,6.05
2017-03-09T04:51:44.584Z,6.05
2017-03-09T04:52:56.214Z,5.98
2017-03-09T04:54:07.650Z,5.95
2017-03-09T04:55:19.087Z,6.02
2017-03-09T04:56:30.528Z,5.99
2017-03-09T04:57:42.157Z,6.03
2017-03-09T04:58:54.027Z,6.06
2017-03-09T05:00:05.479Z,6
2017-03-09T05:01:16.964Z,6.02
2017-03-09T05:02:28.399Z,5.98
2017-03-09T05:03:39.845Z,5.92
2017-03-09T05:04:51.273Z,5.95
2017-03-09T05:06:02.718Z,5.92
2017-03-09T05:07:14.148Z,5.91
2017-03-09T05:08:25.782Z,5.85
2017-03-09T05:09:37.412Z,5.91
2017-03-09T05:10:49.055Z,5.91
2017-03-09T05:12:00.757Z,5.84
2017-03-09T05:13:12.200Z,5.87
2017-03-09T05:14:23.667Z,5.88
2017-03-09T05:15:35.118Z,5.82
2017-03-09T05:16:46.555Z,5.7
2017-03-09T05:17:57.980Z,5.78
2017-03-09T05:19:09.419Z,5.66
2017-03-09T05:20:21.076Z,5.62
2017-03-09T05:21:32.744Z,5.72
2017-03-09T05:22:44.417Z,5.7
2017-03-09T05:23:55.843Z,5.66
2017-03-09T05:25:07.283Z,5.6
2017-03-09T05:26:18.726Z,5.6
2017-03-09T05:27:30.183Z,5.55
2017-03-09T05:28:41.638Z,5.57
2017-03-09T05:29:53.095Z,5.59
2017-03-09T05:31:04.540Z,5.6
2017-03-09T05:32:15.974Z,5.55
2017-03-09T05:33:27.451Z,5.55
2017-03-09T05:34:38.898Z,5.54
2017-03-09T05:35:50.331Z,5.59
2017-03-09T05:37:01.970Z,5.52
2017-03-09T05:38:13.408Z,5.48
2017-03-09T05:39:24.847Z,5.48
2017-03-09T05:40:36.478Z,5.39
2017-03-09T05:41:47.927Z,5.44
2017-03-09T05:42:59.372Z,5.42
2017-03-09T05:44:10.856Z,5.44
2017-03-09T05:45:22.293Z,5.41
2017-03-09T05:46:33.721Z,5.42
2017-03-09T05:47:45.363Z,5.3
2017-03-09T05:48:56.816Z,5.3
2017-03-09T05:50:08.271Z,5.39
2017-03-09T05:51:19.718Z,5.37
2017-03-09T05:52:31.182Z,5.3
2017-03-09T05:53:42.621Z,5.24
2017-03-09T05:54:54.048Z,5.31
2017-03-09T05:56:05.542Z,5.16
2017-03-09T05:57:16.983Z,5.18
2017-03-09T05:58:28.424Z,5.16
2017-03-09T05:59:39.872Z,5.23
2017-03-09T06:00:51.322Z,5.12
2017-03-09T06:02:02.958Z,5.13
2017-03-09T06:03:14.411Z,5.21
2017-03-09T06:04:26.057Z,5.09
2017-03-09T06:05:37.734Z,5.16
2017-03-09T06:06:49.193Z,5.13
2017-03-09T06:08:00.834Z,5.08
2017-03-09T06:09:12.282Z,5.12
2017-03-09T06:10:23.721Z,5.12
2017-03-09T06:11:35.366Z,5.02
2017-03-09T06:12:46.828Z,5.1
2017-03-09T06:13:58.472Z,5.08
2017-03-09T06:15:09.932Z,5.08
2017-03-09T06:16:21.432Z,5.06
2017-03-09T06:17:32.878Z,5.09
2017-03-09T06:18:44.297Z,5.09
2017-03-09T06:19:55.765Z,5.03
2017-03-09T06:21:07.195Z,5.12
2017-03-09T06:22:18.728Z,5.03
2017-03-09T06:23:30.373Z,5.12
2017-03-09T06:24:41.833Z,5.06
2017-03-09T06:25:53.273Z,5.15
2017-03-09T06:27:04.722Z,5.09
2017-03-09T06:28:16.370Z,5.13
2017-03-09T06:29:27.808Z,5.09
2017-03-09T06:30:39.249Z,5.12
2017-03-09T06:31:50.688Z,5.09
2017-03-09T06:33:02.176Z,5
2017-03-09T06:34:13.613Z,4.95
2017-03-09T06:35:25.072Z,5
2017-03-09T06:36:36.522Z,5.05
2017-03-09T06:37:47.948Z,5.02
2017-03-09T06:38:59.399Z,4.97
2017-03-09T06:40:10.840Z,5.08
2017-03-09T06:41:22.271Z,5
2017-03-09T06:42:33.692Z,4.98
2017-03-09T06:43:45.187Z,5.06
2017-03-09T06:44:56.832Z,5.05
2017-03-09T06:46:08.280Z,5.02
2017-03-09T06:47:19.933Z,4.98
2017-03-09T06:48:31.358Z,5.05
2017-03-09T06:49:42.812Z,5
2017-03-09T06:50:54.470Z,5.08
2017-03-09T06:52:05.893Z,5.1
2017-03-09T06:53:17.525Z,5.18
2017-03-09T06:54:29.019Z,5.13
2017-03-09T06:55:40.452Z,5.28
2017-03-09T06:56:51.901Z,5.3
2017-03-09T06:58:03.353Z,5.31
2017-03-09T06:59:14.798Z,5.39
2017-03-09T07:00:26.436Z,5.44
2017-03-09T07:01:38.073Z,5.36
2017-03-09T07:02:49.713Z,5.52
2017-03-09T07:04:01.151Z,5.52
2017-03-09T07:05:12.576Z,5.42
2017-03-09T07:06:24.079Z,5.57
2017-03-09T07:07:35.525Z,5.52
2017-03-09T07:08:46.972Z,5.55
2017-03-09T07:09:58.398Z,5.59
2017-03-09T07:11:10.051Z,5.6
2017-03-09T07:12:21.504Z,5.73
2017-03-09T07:13:32.959Z,5.67
2017-03-09T07:14:44.605Z,5.66
2017-03-09T07:15:56.096Z,5.75
2017-03-09T07:17:07.535Z,5.73
2017-03-09T07:18:18.971Z,5.78
2017-03-09T07:19:30.416Z,5.78
2017-03-09T07:20:41.856Z,5.77
2017-03-09T07:21:53.288Z,5.87
2017-03-09T07:23:04.723Z,5.85
2017-03-09T07:24:16.153Z,5.92
2017-03-09T07:25:27.613Z,5.92
2017-03-09T07:26:39.294Z,6.03
2017-03-09T07:27:50.751Z,6
2017-03-09T07:29:02.184Z,6.02
2017-03-09T07:30:13.622Z,6.05
2017-03-09T07:31:25.264Z,6.07
2017-03-09T07:32:36.689Z,6.15
2017-03-09T07:33:48.117Z,6.17
2017-03-09T07:34:59.749Z,6.17
2017-03-09T07:36:11.189Z,6.2
2017-03-09T07:37:22.605Z,6.18
2017-03-09T07:38:34.050Z,6.13
2017-03-09T07:39:45.717Z,6.1
2017-03-09T07:40:57.154Z,6.21
2017-03-09T07:42:08.600Z,6.15
2017-03-09T07:43:20.094Z,6.26
2017-03-09T07:44:31.740Z,6.24
2017-03-09T07:45:43.195Z,6.28
2017-03-09T07:46:54.643Z,6.29
2017-03-09T07:48:06.090Z,6.31
2017-03-09T07:49:17.531Z,6.36
2017-03-09T07:50:28.986Z,6.43
2017-03-09T07:51:40.424Z,6.4
2017-03-09T07:52:51.866Z,6.49
2017-03-09T07:54:03.356Z,6.47
2017-03-09T07:55:14.995Z,6.49
2017-03-09T07:56:26.432Z,6.54
2017-03-09T07:57:38.062Z,6.65
2017-03-09T07:58:49.513Z,6.65
2017-03-09T08:00:00.978Z,6.72
2017-03-09T08:01:12.415Z,6.8
2017-03-09T08:02:24.058Z,6.91
2017-03-09T08:03:35.491Z,6.83
2017-03-09T08:04:46.979Z,6.85
2017-03-09T08:05:58.431Z,6.76
2017-03-09T08:07:09.887Z,6.9
2017-03-09T08:08:21.330Z,6.91
2017-03-09T08:09:32.764Z,6.98
2017-03-09T08:10:44.407Z,7.08
2017-03-09T08:11:56.049Z,7.04
2017-03-09T08:13:07.483Z,7.09
2017-03-09T08:14:18.934Z,7.16
2017-03-09T08:15:30.591Z,7.21
2017-03-09T08:16:42.492Z,7.37
2017-03-09T08:17:53.941Z,7.59
2017-03-09T08:19:05.382Z,7.77
2017-03-09T08:20:16.853Z,7.99
2017-03-09T08:21:28.291Z,8.29
2017-03-09T08:22:39.940Z,8.4
2017-03-09T08:23:51.387Z,8.69
2017-03-09T08:25:02.832Z,9.04
2017-03-09T08:26:14.362Z,9.37
2017-03-09T08:27:26.001Z,9.78
2017-03-09T08:28:37.450Z,10.29
2017-03-09T08:29:49.107Z,10.7
2017-03-09T08:31:00.747Z,10.92
2017-03-09T08:32:12.215Z,11.1
2017-03-09T08:33:23.696Z,11.53
2017-03-09T08:34:35.139Z,11.91
2017-03-09T08:35:46.791Z,12.25
2017-03-09T08:36:58.278Z,12.47
2017-03-09T08:40:27.210Z,12.89
2017-03-09T08:41:38.876Z,13.09
2017-03-09T08:42:50.568Z,13.16
2017-03-09T08:44:02.053Z,13.37
2017-03-09T08:45:13.708Z,13.7
2017-03-09T08:47:35.167Z,13.72
2017-03-09T08:48:46.619Z,13.32
2017-03-09T08:49:58.273Z,12.74
2017-03-09T08:51:09.731Z,12.41
2017-03-09T08:52:21.248Z,12.1
2017-03-09T08:53:32.722Z,12.03
2017-03-09T08:54:44.171Z,11.86
2017-03-09T08:55:55.640Z,11.7
2017-03-09T08:57:07.320Z,11.79
2017-03-09T08:58:18.803Z,11.84
2017-03-09T08:59:30.257Z,11.85
2017-03-09T09:00:41.702Z,11.81
2017-03-09T09:01:53.166Z,11.7
2017-03-09T09:03:04.876Z,11.6
2017-03-09T09:04:16.356Z,11.41
2017-03-09T09:05:27.836Z,11.33
2017-03-09T09:06:39.295Z,11.28
2017-03-09T09:07:50.951Z,11.18
2017-03-09T09:09:02.407Z,11.18
2017-03-09T09:10:13.859Z,11.13
2017-03-09T09:11:25.324Z,11.33
2017-03-09T09:12:36.822Z,11.35
2017-03-09T09:13:48.314Z,11.59
2017-03-09T09:14:59.766Z,11.7
2017-03-09T09:16:11.224Z,11.94
2017-03-09T09:17:22.680Z,12.11
2017-03-09T09:18:34.120Z,12.23
2017-03-09T09:19:45.770Z,12.1
2017-03-09T09:20:57.227Z,12.08
2017-03-09T09:22:08.670Z,11.91
2017-03-09T09:23:20.123Z,11.76
2017-03-09T09:24:31.582Z,11.67
2017-03-09T09:25:43.093Z,11.59
2017-03-09T09:26:54.559Z,11.59
2017-03-09T09:28:06.035Z,11.7
2017-03-09T09:29:17.481Z,11.52
2017-03-09T09:30:28.926Z,11.59
2017-03-09T09:31:40.382Z,11.6
2017-03-09T09:32:51.856Z,11.57
2017-03-09T09:34:03.308Z,11.67
2017-03-09T09:35:15.005Z,11.71
2017-03-09T09:36:26.642Z,11.73
2017-03-09T09:37:38.331Z,11.56
2017-03-09T09:38:49.776Z,11.64
2017-03-09T09:40:01.218Z,11.59
2017-03-09T09:41:12.865Z,11.42
2017-03-09T09:42:24.329Z,11.38
2017-03-09T09:43:35.792Z,11.28
2017-03-09T09:44:47.251Z,11.2
2017-03-09T09:45:58.765Z,11.18
2017-03-09T09:47:10.207Z,11.09
2017-03-09T09:48:21.854Z,11.05
2017-03-09T09:49:33.528Z,11.03
2017-03-09T09:50:44.995Z,11
2017-03-09T09:51:56.528Z,10.94
2017-03-09T09:54:17.522Z,10.9
2017-03-09T09:55:29.173Z,10.87
2017-03-09T09:56:40.611Z,10.85
2017-03-09T09:57:52.274Z,10.8
2017-03-09T09:59:03.729Z,10.77
2017-03-09T10:00:15.192Z,10.73
2017-03-09T10:01:26.634Z,10.73
2017-03-09T10:02:38.294Z,10.72
2017-03-09T10:03:50.063Z,10.73
2017-03-09T10:05:01.516Z,10.8
2017-03-09T10:06:12.958Z,10.76
2017-03-09T10:07:24.398Z,10.67
2017-03-09T10:08:35.851Z,10.69
2017-03-09T10:09:47.283Z,10.73
2017-03-09T10:10:58.927Z,10.66
2017-03-09T10:12:10.559Z,10.69
2017-03-09T10:13:22.068Z,10.67
2017-03-09T10:14:33.555Z,10.69
2017-03-09T10:15:45.227Z,10.73
2017-03-09T10:16:56.676Z,10.7
2017-03-09T10:18:08.506Z,10.66
2017-03-09T10:19:19.951Z,10.54
2017-03-09T10:20:31.408Z,10.46
2017-03-09T10:21:42.854Z,10.38
2017-03-09T10:22:54.309Z,10.44
2017-03-09T10:24:05.812Z,10.31
2017-03-09T10:25:17.255Z,10.33
2017-03-09T10:26:28.697Z,10.1
2017-03-09T10:27:40.129Z,10.07
2017-03-09T10:28:51.807Z,9.93
2017-03-09T10:30:03.462Z,9.99
2017-03-09T10:31:14.905Z,9.95
2017-03-09T10:32:26.352Z,10.02
2017-03-09T10:33:37.798Z,10.07
2017-03-09T10:34:49.302Z,10.1
2017-03-09T10:36:00.770Z,10.1
2017-03-09T10:37:12.226Z,10.11
2017-03-09T10:38:23.877Z,9.99
2017-03-09T10:39:35.340Z,9.88
2017-03-09T10:40:46.988Z,9.88
2017-03-09T10:41:58.427Z,9.88
2017-03-09T10:43:09.890Z,9.74
2017-03-09T10:44:21.720Z,9.77
2017-03-09T10:45:33.429Z,9.78
2017-03-09T10:46:44.880Z,9.71
2017-03-09T10:47:56.520Z,9.67
2017-03-09T10:49:07.972Z,9.7
2017-03-09T10:50:19.414Z,9.71
2017-03-09T10:51:30.873Z,9.66
2017-03-09T10:52:42.311Z,9.6
2017-03-09T10:53:53.759Z,9.53
2017-03-09T10:55:05.400Z,9.44
2017-03-09T10:56:16.905Z,9.37
2017-03-09T10:57:28.359Z,9.42
2017-03-09T10:58:39.815Z,9.37
2017-03-09T10:59:51.255Z,9.27
2017-03-09T11:01:02.901Z,9.39
2017-03-09T11:02:14.441Z,9.39
2017-03-09T11:03:25.900Z,9.42
2017-03-09T11:04:37.346Z,9.41
2017-03-09T11:05:49.004Z,9.42
2017-03-09T11:07:00.436Z,9.5
2017-03-09T11:08:11.890Z,9.44
2017-03-09T11:09:23.731Z,9.48
2017-03-09T11:10:35.161Z,9.45
2017-03-09T11:11:46.598Z,9.39
2017-03-09T11:12:58.231Z,9.41
2017-03-09T11:14:10.077Z,9.41
2017-03-09T11:15:21.528Z,9.39
2017-03-09T11:16:33.191Z,9.44
2017-03-09T11:17:44.634Z,9.39
2017-03-09T11:18:56.266Z,9.45
2017-03-09T11:20:07.716Z,9.38
2017-03-09T11:21:19.371Z,9.44
2017-03-09T11:22:30.901Z,9.39
2017-03-09T11:23:42.350Z,9.48
2017-03-09T11:24:53.787Z,9.47
2017-03-09T11:26:05.256Z,9.47
2017-03-09T11:27:16.711Z,9.59
2017-03-09T11:28:28.220Z,9.47
2017-03-09T11:29:39.679Z,9.41
2017-03-09T11:30:51.319Z,9.42
2017-03-09T11:32:02.785Z,9.42
2017-03-09T11:33:14.213Z,9.41
2017-03-09T11:34:25.679Z,9.44
2017-03-09T11:35:37.330Z,9.47
2017-03-09T11:36:48.764Z,9.45
2017-03-09T11:38:00.411Z,9.45
2017-03-09T11:39:11.852Z,9.42
2017-03-09T11:40:23.301Z,9.45
2017-03-09T11:41:34.943Z,9.52
2017-03-09T11:42:46.594Z,9.59
2017-03-09T11:43:58.037Z,9.44
2017-03-09T11:45:09.472Z,9.47
2017-03-09T11:46:20.946Z,9.45
2017-03-09T11:47:32.375Z,9.42
2017-03-09T11:48:43.809Z,9.41
2017-03-09T11:49:55.310Z,9.39
2017-03-09T11:51:06.736Z,9.45
2017-03-09T11:52:18.197Z,9.44
2017-03-09T11:53:29.663Z,9.38
2017-03-09T11:54:41.124Z,9.47
2017-03-09T11:55:52.580Z,9.45
2017-03-09T11:57:04.020Z,9.39
2017-03-09T11:58:15.454Z,9.48
2017-03-09T11:59:26.971Z,9.55
2017-03-09T12:00:38.626Z,9.52
2017-03-09T12:01:50.086Z,9.44
2017-03-09T12:03:01.513Z,9.56
2017-03-09T12:04:13.138Z,9.47
2017-03-09T12:05:24.610Z,9.48
2017-03-09T12:06:36.063Z,9.57
2017-03-09T12:07:47.540Z,9.63
2017-03-09T12:08:58.973Z,9.71
2017-03-09T12:10:10.468Z,9.72
2017-03-09T12:11:21.921Z,9.63
2017-03-09T12:12:33.362Z,9.8
2017-03-09T12:13:44.803Z,9.71
2017-03-09T12:14:56.245Z,9.78
2017-03-09T12:16:07.707Z,9.84
2017-03-09T12:17:19.154Z,9.82
2017-03-09T12:18:30.593Z,9.96
2017-03-09T12:19:42.027Z,10.05
2017-03-09T12:20:53.520Z,10.13
2017-03-09T12:22:04.994Z,10.13
2017-03-09T12:23:16.632Z,10.14
2017-03-09T12:24:28.306Z,10.15
2017-03-09T12:25:39.774Z,10.1
2017-03-09T12:26:51.266Z,10.23
2017-03-09T12:28:02.716Z,10.21
2017-03-09T12:29:14.191Z,10.38
2017-03-09T12:30:25.637Z,10.29
2017-03-09T12:31:37.303Z,10.39
2017-03-09T12:32:49.001Z,10.47
2017-03-09T12:34:00.459Z,10.38
2017-03-09T12:35:11.921Z,10.54
2017-03-09T12:36:23.395Z,10.47
2017-03-09T12:37:34.849Z,10.44
2017-03-09T12:38:46.346Z,10.47
2017-03-09T12:39:57.803Z,10.57
2017-03-09T12:41:09.238Z,10.59
2017-03-09T12:42:20.691Z,10.63
2017-03-09T12:43:32.129Z,10.65
2017-03-09T12:44:43.882Z,10.69
2017-03-09T12:45:55.330Z,10.67
2017-03-09T12:47:06.770Z,10.72
2017-03-09T12:48:18.194Z,10.72
2017-03-09T12:49:29.662Z,10.75
2017-03-09T12:50:41.367Z,10.73
2017-03-09T12:51:52.807Z,10.79
2017-03-09T12:53:04.256Z,10.8
2017-03-09T12:54:15.707Z,10.69
2017-03-09T12:55:27.146Z,10.69
2017-03-09T12:56:38.596Z,10.76
2017-03-09T12:57:50.454Z,10.67
2017-03-09T12:59:01.901Z,10.63
2017-03-09T13:00:13.641Z,10.75
2017-03-09T13:01:25.314Z,10.79
2017-03-09T13:02:36.799Z,10.79
2017-03-09T13:03:48.453Z,10.75
2017-03-09T13:04:59.912Z,10.75
2017-03-09T13:06:11.364Z,10.7
2017-03-09T13:07:22.834Z,10.79
2017-03-09T13:08:34.293Z,10.76
2017-03-09T13:09:45.730Z,10.73
2017-03-09T13:10:57.185Z,10.85
2017-03-09T13:12:08.826Z,10.8
2017-03-09T13:13:20.278Z,10.92
2017-03-09T13:14:31.939Z,10.87
2017-03-09T13:15:43.636Z,10.9
2017-03-09T13:16:55.083Z,10.97
2017-03-09T13:18:06.536Z,11
2017-03-09T13:19:17.983Z,10.97
2017-03-09T13:20:29.442Z,11.03
2017-03-09T13:21:41.069Z,10.92
2017-03-09T13:22:52.535Z,10.95
2017-03-09T13:24:03.984Z,10.85
2017-03-09T13:25:15.471Z,10.85
2017-03-09T13:26:26.918Z,10.9
2017-03-09T13:27:38.368Z,10.94
2017-03-09T13:28:50.032Z,10.92
2017-03-09T13:30:01.499Z,10.95
2017-03-09T13:31:12.960Z,10.98
2017-03-09T13:32:24.400Z,10.85
2017-03-09T13:33:36.032Z,10.83
2017-03-09T13:34:47.485Z,10.92
2017-03-09T13:35:58.935Z,10.91
2017-03-09T13:37:10.377Z,10.95
2017-03-09T13:38:22.224Z,11
2017-03-09T13:39:33.670Z,10.88
2017-03-09T13:40:45.171Z,10.88
2017-03-09T13:41:56.611Z,10.98
2017-03-09T13:43:08.056Z,11.03
2017-03-09T13:44:19.922Z,11.02
2017-03-09T13:45:31.396Z,10.9
2017-03-09T13:46:43.053Z,11.06
2017-03-09T13:47:54.508Z,11.08
2017-03-09T13:49:05.952Z,11.1
2017-03-09T13:50:17.418Z,11.08
2017-03-09T13:51:28.847Z,11.05
2017-03-09T13:52:40.500Z,11.08
2017-03-09T13:53:52.152Z,11.09
2017-03-09T13:55:03.609Z,11
2017-03-09T13:56:15.575Z,10.98
2017-03-09T13:57:27.034Z,11.02
2017-03-09T13:58:38.685Z,10.98
2017-03-09T13:59:50.326Z,11.09
2017-03-09T14:01:01.783Z,11.09
2017-03-09T14:02:13.246Z,11.12
2017-03-09T14:03:24.731Z,11.09
2017-03-09T14:04:36.224Z,10.98
2017-03-09T14:05:47.659Z,11.03
2017-03-09T14:06:59.086Z,10.94
2017-03-09T14:08:10.742Z,11.09
2017-03-09T14:09:22.206Z,11.06
2017-03-09T14:10:33.647Z,11
2017-03-09T14:11:45.815Z,11.02
2017-03-09T14:12:57.274Z,10.98
2017-03-09T14:14:08.771Z,11.05
2017-03-09T14:15:20.206Z,11
2017-03-09T14:16:31.643Z,11.05
2017-03-09T14:17:43.093Z,11.02
2017-03-09T14:18:54.927Z,11.05
2017-03-09T14:20:06.381Z,10.9
2017-03-09T14:21:17.845Z,10.97
2017-03-09T14:22:29.285Z,10.97
2017-03-09T14:23:40.735Z,10.98
2017-03-09T14:24:52.190Z,10.95
2017-03-09T14:26:03.642Z,11.03
2017-03-09T14:27:15.134Z,11.03
2017-03-09T14:28:26.761Z,10.98
2017-03-09T14:29:38.402Z,11.05
2017-03-09T14:30:49.871Z,11.13
2017-03-09T14:32:01.314Z,11.03
2017-03-09T14:33:12.959Z,10.98
2017-03-09T14:34:24.390Z,11.08
2017-03-09T14:35:35.848Z,11.03
2017-03-09T14:36:47.485Z,11.08
2017-03-09T14:37:58.935Z,11.08
2017-03-09T14:39:10.596Z,11.03
2017-03-09T14:40:22.045Z,11.08
2017-03-09T14:41:33.515Z,11.02
2017-03-09T14:42:45.261Z,11.02
2017-03-09T14:43:56.718Z,11.02
2017-03-09T14:45:08.168Z,11
2017-03-09T14:46:19.593Z,11.18
2017-03-09T14:47:31.042Z,11.08
2017-03-09T14:48:42.497Z,11.08
2017-03-09T14:49:53.952Z,11.06
2017-03-09T14:51:05.380Z,11.09
2017-03-09T14:52:16.817Z,11.1
2017-03-09T14:53:28.259Z,11.16
2017-03-09T14:54:39.735Z,11.18
2017-03-09T14:55:51.192Z,11.13
2017-03-09T14:57:02.654Z,11.09
2017-03-09T14:58:14.112Z,11.15
2017-03-09T14:59:25.798Z,11.1
2017-03-09T15:00:37.247Z,11.08
2017-03-09T15:01:48.674Z,11.12
2017-03-09T15:03:00.121Z,11.1
2017-03-09T15:04:11.571Z,11.1
2017-03-09T15:05:23.230Z,11.16
2017-03-09T15:06:34.664Z,11.13
2017-03-09T15:07:46.113Z,11.09
2017-03-09T15:08:57.547Z,11.12
2017-03-09T15:10:08.994Z,11.12
2017-03-09T15:11:20.465Z,11.06
2017-03-09T15:12:31.923Z,11.06
2017-03-09T15:13:43.375Z,11
2017-03-09T15:14:54.835Z,10.98
2017-03-09T15:16:06.280Z,11
2017-03-09T15:17:17.726Z,11
2017-03-09T15:18:29.176Z,11.08
2017-03-09T15:19:40.668Z,10.95
2017-03-09T15:20:52.138Z,11.05
2017-03-09T15:22:03.578Z,10.98
2017-03-09T15:23:15.035Z,11.06
2017-03-09T15:24:26.673Z,11.03
2017-03-09T15:25:38.110Z,11.05
2017-03-09T15:26:49.752Z,11.06
2017-03-09T15:28:01.205Z,11.13
2017-03-09T15:29:12.642Z,11.09
2017-03-09T15:30:24.082Z,11.06
2017-03-09T15:31:35.544Z,11.13
2017-03-09T15:32:46.983Z,11.16
2017-03-09T15:33:58.429Z,11.06
2017-03-09T15:35:10.080Z,11.09
2017-03-09T15:36:21.514Z,11.1
2017-03-09T15:37:33.171Z,11.21
2017-03-09T15:38:44.802Z,11.12
2017-03-09T15:39:56.279Z,11.2
2017-03-09T15:41:07.714Z,11.18
2017-03-09T15:42:19.163Z,11.26
2017-03-09T15:43:30.622Z,11.24
2017-03-09T15:44:42.272Z,11.18
2017-03-09T15:45:53.724Z,11.24
2017-03-09T15:47:05.183Z,11.24
2017-03-09T15:48:16.828Z,11.38
2017-03-09T15:49:28.476Z,11.35
2017-03-09T15:50:40.140Z,11.34